ESOK 230920Z 35008KT 9999 BKN012 03/01 Q1003